PWSweather.com
Personal Weather Stations
Station Observations
FARMTALK
Wv, Procious, WV 25164

WvProcious, WV 25164

Lat: 38.483056, Lon: -81.159722

Elevation: 784

Station Type: Weatherwise 1090

www.fitzweather.com

High Low Average
Temperature 66.7°F19.3°C 31.5°F-0.3°C 44.6°F7.0°C
Dew Point 40.4°F4.7°C 24.2°F-4.3°C 33.7°F0.9°C
Winds 5.0 mph 8.0 kmh Calm Calm 1.0 mph ESE1.6 kmh ESE
Wind Gusts 7.6 mph12.2 kmh -- 2.0 mph3.2 kmh
Humidity 99% 22% 73%
Pressure 30.05 in1017.6 mb 29.86 in1011.2 mb -
Precipitation 0.01 in0.3 mm - -
Hour Temp Dew Point Humidity Winds Wind Gusts Pressure Precip Precip Rate Daily Precip Total
12:00 AM 40.3°F4.6°C 40.0°F4.4°C 99% 0.5 mph E0.8 kmh E 1.6 mph2.6 kmh 29.87 in1011.5 mb 0.00 in0.0 mm 0.00 in0.0 mm 0.00 in0.0 mm
12:10 AM 40.3°F4.6°C 40.0°F4.4°C 99% 0.5 mph NE0.8 kmh NE 2.2 mph3.5 kmh 29.87 in1011.5 mb 0.00 in0.0 mm 0.00 in0.0 mm 0.00 in0.0 mm
12:20 AM 40.5°F4.7°C 40.2°F4.6°C 99% 0.1 mph NE0.2 kmh NE 0.7 mph1.1 kmh 29.88 in1011.9 mb 0.00 in0.0 mm 0.00 in0.0 mm 0.00 in0.0 mm
12:30 AM 40.5°F4.7°C 40.2°F4.6°C 99% 0.2 mph NE0.3 kmh NE 1.6 mph2.6 kmh 29.88 in1011.9 mb 0.00 in0.0 mm 0.00 in0.0 mm 0.00 in0.0 mm
12:40 AM 40.5°F4.7°C 40.2°F4.6°C 99% 0.4 mph NE0.6 kmh NE 0.7 mph1.1 kmh 29.89 in1012.2 mb 0.00 in0.0 mm 0.00 in0.0 mm 0.00 in0.0 mm
12:50 AM 40.6°F4.8°C 40.4°F4.7°C 99% 0.9 mph NE1.4 kmh NE 1.6 mph2.6 kmh 29.90 in1012.5 mb 0.00 in0.0 mm 0.00 in0.0 mm 0.00 in0.0 mm
01:00 AM 40.6°F4.8°C 40.4°F4.7°C 99% 1.2 mph E1.9 kmh E 1.6 mph2.6 kmh 29.90 in1012.5 mb 0.00 in0.0 mm 0.00 in0.0 mm 0.00 in0.0 mm
01:10 AM 40.6°F4.8°C 40.4°F4.7°C 99% 0.4 mph NE0.6 kmh NE 0.7 mph1.1 kmh 29.89 in1012.2 mb 0.00 in0.0 mm 0.00 in0.0 mm 0.00 in0.0 mm
01:20 AM 40.6°F4.8°C 40.4°F4.7°C 99% Calm Calm -- 29.91 in1012.9 mb 0.00 in0.0 mm 0.00 in0.0 mm 0.00 in0.0 mm
01:30 AM 40.6°F4.8°C 40.4°F4.7°C 99% Calm Calm -- 29.91 in1012.9 mb 0.00 in0.0 mm 0.00 in0.0 mm 0.00 in0.0 mm
01:40 AM 40.6°F4.8°C 40.4°F4.7°C 99% 0.1 mph SE0.2 kmh SE 0.7 mph1.1 kmh 29.92 in1013.2 mb 0.00 in0.0 mm 0.00 in0.0 mm 0.00 in0.0 mm
01:50 AM 40.6°F4.8°C 40.4°F4.7°C 99% Calm Calm -- 29.91 in1012.9 mb 0.00 in0.0 mm 0.00 in0.0 mm 0.00 in0.0 mm
02:00 AM 40.6°F4.8°C 40.4°F4.7°C 99% Calm Calm -- 29.91 in1012.9 mb 0.00 in0.0 mm 0.00 in0.0 mm 0.00 in0.0 mm
02:10 AM 40.6°F4.8°C 40.4°F4.7°C 99% Calm Calm -- 29.92 in1013.2 mb 0.00 in0.0 mm 0.00 in0.0 mm 0.00 in0.0 mm
02:20 AM 40.6°F4.8°C 40.4°F4.7°C 99% 0.7 mph NE1.1 kmh NE 1.6 mph2.6 kmh 29.93 in1013.5 mb 0.00 in0.0 mm 0.00 in0.0 mm 0.00 in0.0 mm
02:30 AM 40.5°F4.7°C 40.2°F4.6°C 99% 0.4 mph NE0.6 kmh NE 1.6 mph2.6 kmh 29.92 in1013.2 mb 0.00 in0.0 mm 0.00 in0.0 mm 0.00 in0.0 mm
02:40 AM 40.5°F4.7°C 40.2°F4.6°C 99% Calm Calm -- 29.93 in1013.5 mb 0.00 in0.0 mm 0.00 in0.0 mm 0.00 in0.0 mm
02:50 AM 40.3°F4.6°C 40.0°F4.4°C 99% Calm Calm -- 29.93 in1013.5 mb 0.00 in0.0 mm 0.00 in0.0 mm 0.00 in0.0 mm
03:00 AM 40.3°F4.6°C 40.0°F4.4°C 99% Calm Calm -- 29.93 in1013.5 mb 0.00 in0.0 mm 0.00 in0.0 mm 0.00 in0.0 mm
03:10 AM 40.3°F4.6°C 40.0°F4.4°C 99% Calm Calm -- 29.93 in1013.5 mb 0.00 in0.0 mm 0.00 in0.0 mm 0.00 in0.0 mm
03:20 AM 40.1°F4.5°C 39.8°F4.3°C 99% Calm Calm -- 29.93 in1013.5 mb 0.00 in0.0 mm 0.00 in0.0 mm 0.00 in0.0 mm
03:30 AM 39.9°F4.4°C 39.7°F4.3°C 99% Calm Calm -- 29.93 in1013.5 mb 0.00 in0.0 mm 0.00 in0.0 mm 0.00 in0.0 mm
03:40 AM 39.7°F4.3°C 39.5°F4.2°C 99% Calm Calm -- 29.94 in1013.9 mb 0.00 in0.0 mm 0.00 in0.0 mm 0.00 in0.0 mm
03:50 AM 39.7°F4.3°C 39.5°F4.2°C 99% Calm Calm -- 29.94 in1013.9 mb 0.00 in0.0 mm 0.00 in0.0 mm 0.00 in0.0 mm
04:00 AM 39.6°F4.2°C 39.3°F4.1°C 99% Calm Calm -- 29.94 in1013.9 mb 0.00 in0.0 mm 0.00 in0.0 mm 0.00 in0.0 mm
04:10 AM 39.6°F4.2°C 39.3°F4.1°C 99% Calm Calm -- 29.94 in1013.9 mb 0.00 in0.0 mm 0.00 in0.0 mm 0.00 in0.0 mm
04:20 AM 39.6°F4.2°C 39.3°F4.1°C 99% Calm Calm -- 29.95 in1014.2 mb 0.00 in0.0 mm 0.00 in0.0 mm 0.00 in0.0 mm
04:30 AM 39.4°F4.1°C 39.1°F3.9°C 99% Calm Calm -- 29.95 in1014.2 mb 0.00 in0.0 mm 0.00 in0.0 mm 0.00 in0.0 mm
04:40 AM 39.2°F4.0°C 38.9°F3.8°C 99% Calm Calm -- 29.95 in1014.2 mb 0.00 in0.0 mm 0.00 in0.0 mm 0.00 in0.0 mm
04:50 AM 39.0°F3.9°C 38.8°F3.8°C 99% Calm Calm -- 29.95 in1014.2 mb 0.00 in0.0 mm 0.00 in0.0 mm 0.00 in0.0 mm
05:00 AM 39.0°F3.9°C 38.8°F3.8°C 99% Calm Calm -- 29.96 in1014.6 mb 0.00 in0.0 mm 0.00 in0.0 mm 0.00 in0.0 mm
05:10 AM 38.8°F3.8°C 38.6°F3.7°C 99% Calm Calm -- 29.96 in1014.6 mb 0.00 in0.0 mm 0.00 in0.0 mm 0.00 in0.0 mm
05:20 AM 38.7°F3.7°C 38.4°F3.6°C 99% 0.1 mph S0.2 kmh S 1.6 mph2.6 kmh 29.97 in1014.9 mb 0.00 in0.0 mm 0.00 in0.0 mm 0.00 in0.0 mm
05:30 AM 38.3°F3.5°C 38.0°F3.3°C 99% 0.6 mph S1.0 kmh S 1.6 mph2.6 kmh 29.97 in1014.9 mb 0.00 in0.0 mm 0.00 in0.0 mm 0.00 in0.0 mm
05:40 AM 37.6°F3.1°C 37.3°F2.9°C 99% Calm Calm -- 29.97 in1014.9 mb 0.00 in0.0 mm 0.00 in0.0 mm 0.00 in0.0 mm
05:50 AM 37.0°F2.8°C 36.8°F2.7°C 99% Calm Calm -- 29.98 in1015.2 mb 0.00 in0.0 mm 0.00 in0.0 mm 0.00 in0.0 mm
06:00 AM 36.3°F2.4°C 36.1°F2.3°C 99% Calm Calm -- 29.99 in1015.6 mb 0.00 in0.0 mm 0.00 in0.0 mm 0.00 in0.0 mm
06:10 AM 35.4°F1.9°C 35.2°F1.8°C 99% Calm Calm -- 29.99 in1015.6 mb 0.00 in0.0 mm 0.00 in0.0 mm 0.00 in0.0 mm
06:20 AM 34.7°F1.5°C 34.5°F1.4°C 99% 0.4 mph E0.6 kmh E 1.6 mph2.6 kmh 29.99 in1015.6 mb 0.00 in0.0 mm 0.00 in0.0 mm 0.00 in0.0 mm
06:30 AM 34.0°F1.1°C 33.7°F0.9°C 99% 0.1 mph E0.2 kmh E 0.7 mph1.1 kmh 29.99 in1015.6 mb 0.00 in0.0 mm 0.00 in0.0 mm 0.00 in0.0 mm
06:40 AM 33.4°F0.8°C 33.2°F0.7°C 99% Calm Calm -- 29.99 in1015.6 mb 0.00 in0.0 mm 0.00 in0.0 mm 0.00 in0.0 mm
06:50 AM 32.9°F0.5°C 32.7°F0.4°C 99% Calm Calm -- 29.99 in1015.6 mb 0.00 in0.0 mm 0.00 in0.0 mm 0.00 in0.0 mm
07:00 AM 32.4°F0.2°C 32.1°F0.1°C 99% Calm Calm -- 30.00 in1015.9 mb 0.00 in0.0 mm 0.00 in0.0 mm 0.00 in0.0 mm
07:10 AM 32.0°F0.0°C 31.8°F-0.1°C 99% Calm Calm -- 30.00 in1015.9 mb 0.00 in0.0 mm 0.00 in0.0 mm 0.00 in0.0 mm
07:20 AM 31.6°F-0.2°C 31.4°F-0.3°C 99% Calm Calm -- 30.01 in1016.3 mb 0.00 in0.0 mm 0.00 in0.0 mm 0.00 in0.0 mm
07:30 AM 31.5°F-0.3°C 31.2°F-0.4°C 99% Calm Calm -- 30.01 in1016.3 mb 0.00 in0.0 mm 0.00 in0.0 mm 0.00 in0.0 mm
07:40 AM 31.5°F-0.3°C 31.2°F-0.4°C 99% Calm Calm -- 30.01 in1016.3 mb 0.00 in0.0 mm 0.00 in0.0 mm 0.00 in0.0 mm
07:50 AM 31.5°F-0.3°C 31.2°F-0.4°C 99% Calm Calm -- 30.02 in1016.6 mb 0.00 in0.0 mm 0.00 in0.0 mm 0.00 in0.0 mm
08:00 AM 31.5°F-0.3°C 31.2°F-0.4°C 99% 0.9 mph SW1.4 kmh SW 1.6 mph2.6 kmh 30.02 in1016.6 mb 0.00 in0.0 mm 0.00 in0.0 mm 0.00 in0.0 mm
08:20 AM 31.6°F-0.2°C 31.4°F-0.3°C 99% 0.1 mph SW0.2 kmh SW 0.7 mph1.1 kmh 30.03 in1016.9 mb 0.00 in0.0 mm 0.00 in0.0 mm 0.00 in0.0 mm
08:30 AM 31.5°F-0.3°C 31.2°F-0.4°C 99% Calm Calm -- 30.03 in1016.9 mb 0.00 in0.0 mm 0.00 in0.0 mm 0.00 in0.0 mm
08:40 AM 31.6°F-0.2°C 31.4°F-0.3°C 99% Calm Calm -- 30.04 in1017.3 mb 0.00 in0.0 mm 0.00 in0.0 mm 0.00 in0.0 mm
08:50 AM 31.6°F-0.2°C 31.4°F-0.3°C 99% Calm Calm -- 30.04 in1017.3 mb 0.00 in0.0 mm 0.00 in0.0 mm 0.00 in0.0 mm
09:00 AM 31.6°F-0.2°C 31.4°F-0.3°C 99% Calm Calm -- 30.04 in1017.3 mb 0.00 in0.0 mm 0.00 in0.0 mm 0.00 in0.0 mm
09:10 AM 31.8°F-0.1°C 31.6°F-0.2°C 99% Calm Calm -- 30.04 in1017.3 mb 0.00 in0.0 mm 0.00 in0.0 mm 0.00 in0.0 mm
09:20 AM 32.2°F0.1°C 31.9°F-0.1°C 99% Calm Calm -- 30.04 in1017.3 mb 0.00 in0.0 mm 0.00 in0.0 mm 0.00 in0.0 mm
09:30 AM 32.7°F0.4°C 32.5°F0.3°C 99% 0.2 mph SW0.3 kmh SW 0.7 mph1.1 kmh 30.04 in1017.3 mb 0.00 in0.0 mm 0.00 in0.0 mm 0.00 in0.0 mm
09:40 AM 33.3°F0.7°C 33.0°F0.6°C 99% 0.4 mph SW0.6 kmh SW 0.7 mph1.1 kmh 30.04 in1017.3 mb 0.00 in0.0 mm 0.00 in0.0 mm 0.00 in0.0 mm
09:50 AM 33.6°F0.9°C 33.4°F0.8°C 99% 0.3 mph SW0.5 kmh SW 1.6 mph2.6 kmh 30.04 in1017.3 mb 0.00 in0.0 mm 0.00 in0.0 mm 0.00 in0.0 mm
10:00 AM 34.2°F1.2°C 33.9°F1.1°C 99% 0.4 mph SW0.6 kmh SW 1.6 mph2.6 kmh 30.05 in1017.6 mb 0.00 in0.0 mm 0.00 in0.0 mm 0.00 in0.0 mm
10:10 AM 35.4°F1.9°C 35.2°F1.8°C 99% 0.7 mph SSE1.1 kmh SSE 1.6 mph2.6 kmh 30.05 in1017.6 mb 0.00 in0.0 mm 0.00 in0.0 mm 0.00 in0.0 mm
10:20 AM 36.9°F2.7°C 36.6°F2.6°C 99% 0.9 mph E1.4 kmh E 1.6 mph2.6 kmh 30.05 in1017.6 mb 0.00 in0.0 mm 0.00 in0.0 mm 0.00 in0.0 mm
10:30 AM 39.0°F3.9°C 37.2°F2.9°C 93% 0.5 mph SSE0.8 kmh SSE 0.7 mph1.1 kmh 30.05 in1017.6 mb 0.00 in0.0 mm 0.00 in0.0 mm 0.00 in0.0 mm
10:40 AM 42.8°F6.0°C 38.6°F3.7°C 85% 1.0 mph SW1.6 kmh SW 2.2 mph3.5 kmh 30.05 in1017.6 mb 0.00 in0.0 mm 0.00 in0.0 mm 0.00 in0.0 mm
10:50 AM 44.4°F6.9°C 36.3°F2.4°C 73% 1.9 mph NNE3.1 kmh NNE 2.2 mph3.5 kmh 30.05 in1017.6 mb 0.00 in0.0 mm 0.00 in0.0 mm 0.00 in0.0 mm
11:00 AM 46.8°F8.2°C 35.6°F2.0°C 65% 2.1 mph NE3.4 kmh NE 3.1 mph5.0 kmh 30.05 in1017.6 mb 0.00 in0.0 mm 0.00 in0.0 mm 0.00 in0.0 mm
11:10 AM 47.8°F8.8°C 35.1°F1.7°C 61% 1.9 mph NNE3.1 kmh NNE 2.2 mph3.5 kmh 30.05 in1017.6 mb 0.00 in0.0 mm 0.00 in0.0 mm 0.00 in0.0 mm
11:20 AM 49.3°F9.6°C 34.7°F1.5°C 57% 2.2 mph N3.5 kmh N 3.8 mph6.1 kmh 30.05 in1017.6 mb 0.00 in0.0 mm 0.00 in0.0 mm 0.00 in0.0 mm
11:30 AM 50.4°F10.2°C 33.9°F1.1°C 53% 2.3 mph SW3.7 kmh SW 4.5 mph7.2 kmh 30.05 in1017.6 mb 0.00 in0.0 mm 0.00 in0.0 mm 0.00 in0.0 mm
11:40 AM 51.3°F10.7°C 33.8°F1.0°C 51% 2.4 mph NNW3.9 kmh NNW 3.1 mph5.0 kmh 30.04 in1017.3 mb 0.00 in0.0 mm 0.00 in0.0 mm 0.00 in0.0 mm
11:50 AM 52.0°F11.1°C 33.9°F1.1°C 50% 2.8 mph NNW4.5 kmh NNW 4.5 mph7.2 kmh 30.04 in1017.3 mb 0.00 in0.0 mm 0.00 in0.0 mm 0.00 in0.0 mm
12:00 PM 52.5°F11.4°C 33.4°F0.8°C 48% 2.6 mph NW4.2 kmh NW 4.5 mph7.2 kmh 30.04 in1017.3 mb 0.00 in0.0 mm 0.00 in0.0 mm 0.00 in0.0 mm
12:10 PM 52.5°F11.4°C 32.3°F0.2°C 46% 2.7 mph NNW4.3 kmh NNW 3.8 mph6.1 kmh 30.04 in1017.3 mb 0.00 in0.0 mm 0.00 in0.0 mm 0.00 in0.0 mm
12:20 PM 52.3°F11.3°C 32.2°F0.1°C 46% 3.5 mph W5.6 kmh W 6.0 mph9.7 kmh 30.03 in1016.9 mb 0.00 in0.0 mm 0.00 in0.0 mm 0.00 in0.0 mm
12:30 PM 52.7°F11.5°C 33.0°F0.6°C 47% 4.4 mph NNW7.1 kmh NNW 6.0 mph9.7 kmh 30.03 in1016.9 mb 0.00 in0.0 mm 0.00 in0.0 mm 0.00 in0.0 mm
12:40 PM 54.7°F12.6°C 29.6°F-1.3°C 38% 2.9 mph NW4.7 kmh NW 4.5 mph7.2 kmh 30.04 in1017.3 mb 0.00 in0.0 mm 0.00 in0.0 mm 0.00 in0.0 mm
12:50 PM 54.1°F12.3°C 27.8°F-2.3°C 36% 3.5 mph WSW5.6 kmh WSW 5.4 mph8.7 kmh 30.03 in1016.9 mb 0.00 in0.0 mm 0.00 in0.0 mm 0.00 in0.0 mm
01:00 PM 55.0°F12.8°C 29.9°F-1.2°C 38% 4.5 mph NNW7.2 kmh NNW 7.6 mph12.2 kmh 30.02 in1016.6 mb 0.00 in0.0 mm 0.00 in0.0 mm 0.00 in0.0 mm
01:10 PM 56.8°F13.8°C 26.5°F-3.1°C 31% 3.0 mph NNW4.8 kmh NNW 6.0 mph9.7 kmh 30.01 in1016.3 mb 0.00 in0.0 mm 0.00 in0.0 mm 0.00 in0.0 mm
01:20 PM 55.9°F13.3°C 27.3°F-2.6°C 33% 3.3 mph NW5.3 kmh NW 6.0 mph9.7 kmh 30.01 in1016.3 mb 0.00 in0.0 mm 0.00 in0.0 mm 0.00 in0.0 mm
01:30 PM 56.1°F13.4°C 30.2°F-1.0°C 37% 5.0 mph NW8.0 kmh NW 7.6 mph12.2 kmh 30.01 in1016.3 mb 0.00 in0.0 mm 0.00 in0.0 mm 0.00 in0.0 mm
01:40 PM 57.0°F13.9°C 28.2°F-2.1°C 33% 3.3 mph NW5.3 kmh NW 4.5 mph7.2 kmh 30.01 in1016.3 mb 0.00 in0.0 mm 0.00 in0.0 mm 0.00 in0.0 mm
01:50 PM 57.7°F14.3°C 31.0°F-0.6°C 36% 2.9 mph WNW4.7 kmh WNW 4.5 mph7.2 kmh 30.00 in1015.9 mb 0.00 in0.0 mm 0.00 in0.0 mm 0.00 in0.0 mm
02:00 PM 59.4°F15.2°C 29.5°F-1.4°C 32% 2.9 mph NW4.7 kmh NW 3.8 mph6.1 kmh 30.00 in1015.9 mb 0.01 in0.3 mm 0.01 in0.3 mm 0.01 in0.3 mm
02:10 PM 59.9°F15.5°C 29.2°F-1.6°C 31% 2.7 mph NW4.3 kmh NW 3.8 mph6.1 kmh 29.99 in1015.6 mb 0.01 in0.3 mm 0.00 in0.0 mm 0.01 in0.3 mm
02:20 PM 58.6°F14.8°C 28.9°F-1.7°C 32% 4.4 mph NW7.1 kmh NW 6.9 mph11.1 kmh 29.99 in1015.6 mb 0.01 in0.3 mm 0.00 in0.0 mm 0.01 in0.3 mm
02:30 PM 60.6°F15.9°C 28.2°F-2.1°C 29% 2.6 mph N4.2 kmh N 4.5 mph7.2 kmh 29.98 in1015.2 mb 0.01 in0.3 mm 0.00 in0.0 mm 0.01 in0.3 mm
02:40 PM 61.0°F16.1°C 26.8°F-2.9°C 27% 3.0 mph WSW4.8 kmh WSW 5.4 mph8.7 kmh 29.97 in1014.9 mb 0.01 in0.3 mm 0.00 in0.0 mm 0.01 in0.3 mm
02:50 PM 62.1°F16.7°C 26.8°F-2.9°C 26% 3.0 mph WSW4.8 kmh WSW 4.5 mph7.2 kmh 29.97 in1014.9 mb 0.01 in0.3 mm 0.00 in0.0 mm 0.01 in0.3 mm
03:00 PM 62.2°F16.8°C 26.9°F-2.8°C 26% 2.3 mph NE3.7 kmh NE 5.4 mph8.7 kmh 29.95 in1014.2 mb 0.00 in0.0 mm 0.00 in0.0 mm 0.01 in0.3 mm
03:10 PM 62.6°F17.0°C 30.8°F-0.7°C 30% 3.1 mph WSW5.0 kmh WSW 5.4 mph8.7 kmh 29.95 in1014.2 mb 0.00 in0.0 mm 0.00 in0.0 mm 0.01 in0.3 mm
03:20 PM 61.2°F16.2°C 26.9°F-2.8°C 27% 4.9 mph S7.9 kmh S 6.9 mph11.1 kmh 29.94 in1013.9 mb 0.00 in0.0 mm 0.00 in0.0 mm 0.01 in0.3 mm
03:30 PM 61.0°F16.1°C 26.8°F-2.9°C 27% 3.9 mph SW6.3 kmh SW 5.4 mph8.7 kmh 29.94 in1013.9 mb 0.00 in0.0 mm 0.00 in0.0 mm 0.01 in0.3 mm
03:40 PM 62.2°F16.8°C 25.0°F-3.9°C 24% 3.3 mph SW5.3 kmh SW 7.6 mph12.2 kmh 29.95 in1014.2 mb 0.00 in0.0 mm 0.00 in0.0 mm 0.01 in0.3 mm
03:50 PM 62.4°F16.9°C 27.1°F-2.7°C 26% 3.4 mph N5.5 kmh N 7.6 mph12.2 kmh 29.95 in1014.2 mb 0.00 in0.0 mm 0.00 in0.0 mm 0.01 in0.3 mm
04:00 PM 63.0°F17.2°C 27.6°F-2.4°C 26% 2.9 mph N4.7 kmh N 5.4 mph8.7 kmh 29.94 in1013.9 mb 0.00 in0.0 mm 0.00 in0.0 mm 0.01 in0.3 mm
04:10 PM 63.1°F17.3°C 25.8°F-3.4°C 24% 3.5 mph WSW5.6 kmh WSW 5.4 mph8.7 kmh 29.94 in1013.9 mb 0.00 in0.0 mm 0.00 in0.0 mm 0.01 in0.3 mm
04:20 PM 63.7°F17.6°C 26.2°F-3.2°C 24% 3.4 mph NW5.5 kmh NW 4.5 mph7.2 kmh 29.93 in1013.5 mb 0.00 in0.0 mm 0.00 in0.0 mm 0.01 in0.3 mm
04:30 PM 64.4°F18.0°C 27.8°F-2.3°C 25% 2.8 mph NW4.5 kmh NW 4.5 mph7.2 kmh 29.93 in1013.5 mb 0.00 in0.0 mm 0.00 in0.0 mm 0.01 in0.3 mm
04:40 PM 66.2°F19.0°C 28.4°F-2.0°C 24% 2.0 mph NW3.2 kmh NW 3.1 mph5.0 kmh 29.92 in1013.2 mb 0.00 in0.0 mm 0.00 in0.0 mm 0.01 in0.3 mm
04:50 PM 64.8°F18.2°C 27.2°F-2.7°C 24% 3.4 mph WSW5.5 kmh WSW 5.4 mph8.7 kmh 29.93 in1013.5 mb 0.00 in0.0 mm 0.00 in0.0 mm 0.01 in0.3 mm
05:00 PM 66.7°F19.3°C 26.7°F-2.9°C 22% 2.1 mph WNW3.4 kmh WNW 3.1 mph5.0 kmh 29.92 in1013.2 mb 0.00 in0.0 mm 0.00 in0.0 mm 0.01 in0.3 mm
05:10 PM 66.4°F19.1°C 26.4°F-3.1°C 22% 2.8 mph N4.5 kmh N 3.8 mph6.1 kmh 29.92 in1013.2 mb 0.00 in0.0 mm 0.00 in0.0 mm 0.01 in0.3 mm
05:20 PM 63.5°F17.5°C 26.1°F-3.3°C 24% 2.2 mph WSW3.5 kmh WSW 5.4 mph8.7 kmh 29.91 in1012.9 mb 0.00 in0.0 mm 0.00 in0.0 mm 0.01 in0.3 mm
05:30 PM 60.6°F15.9°C 24.6°F-4.1°C 25% 1.7 mph WSW2.7 kmh WSW 3.8 mph6.1 kmh 29.91 in1012.9 mb 0.00 in0.0 mm 0.00 in0.0 mm 0.01 in0.3 mm
05:40 PM 59.0°F15.0°C 24.2°F-4.3°C 26% 2.8 mph NNW4.5 kmh NNW 4.5 mph7.2 kmh 29.91 in1012.9 mb 0.00 in0.0 mm 0.00 in0.0 mm 0.01 in0.3 mm
05:50 PM 58.5°F14.7°C 28.7°F-1.8°C 32% 2.3 mph NW3.7 kmh NW 3.1 mph5.0 kmh 29.91 in1012.9 mb 0.00 in0.0 mm 0.00 in0.0 mm 0.01 in0.3 mm
06:00 PM 57.2°F14.0°C 29.8°F-1.2°C 35% 0.8 mph WSW1.3 kmh WSW 1.6 mph2.6 kmh 29.91 in1012.9 mb 0.00 in0.0 mm 0.00 in0.0 mm 0.01 in0.3 mm
06:10 PM 56.7°F13.7°C 25.6°F-3.6°C 30% 0.8 mph NNW1.3 kmh NNW 2.2 mph3.5 kmh 29.91 in1012.9 mb 0.00 in0.0 mm 0.00 in0.0 mm 0.01 in0.3 mm
06:20 PM 56.3°F13.5°C 32.3°F0.2°C 40% 0.4 mph WNW0.6 kmh WNW 2.2 mph3.5 kmh 29.90 in1012.5 mb 0.00 in0.0 mm 0.00 in0.0 mm 0.01 in0.3 mm
06:30 PM 55.0°F12.8°C 34.6°F1.4°C 46% Calm Calm -- 29.90 in1012.5 mb 0.00 in0.0 mm 0.00 in0.0 mm 0.01 in0.3 mm
06:40 PM 53.4°F11.9°C 37.2°F2.9°C 54% Calm Calm -- 29.90 in1012.5 mb 0.00 in0.0 mm 0.00 in0.0 mm 0.01 in0.3 mm
06:50 PM 52.5°F11.4°C 37.3°F2.9°C 56% Calm Calm -- 29.90 in1012.5 mb 0.00 in0.0 mm 0.00 in0.0 mm 0.01 in0.3 mm
07:00 PM 51.6°F10.9°C 36.9°F2.7°C 57% Calm Calm -- 29.89 in1012.2 mb 0.00 in0.0 mm 0.00 in0.0 mm 0.01 in0.3 mm
07:10 PM 50.7°F10.4°C 37.4°F3.0°C 60% Calm Calm -- 29.89 in1012.2 mb 0.00 in0.0 mm 0.00 in0.0 mm 0.01 in0.3 mm
07:20 PM 49.6°F9.8°C 37.6°F3.1°C 63% Calm Calm -- 29.89 in1012.2 mb 0.00 in0.0 mm 0.00 in0.0 mm 0.01 in0.3 mm
07:30 PM 49.3°F9.6°C 37.6°F3.1°C 64% Calm Calm -- 29.89 in1012.2 mb 0.00 in0.0 mm 0.00 in0.0 mm 0.01 in0.3 mm
07:40 PM 47.3°F8.5°C 38.0°F3.3°C 70% Calm Calm -- 29.89 in1012.2 mb 0.00 in0.0 mm 0.00 in0.0 mm 0.01 in0.3 mm
07:50 PM 46.2°F7.9°C 37.7°F3.2°C 72% Calm Calm -- 29.89 in1012.2 mb 0.00 in0.0 mm 0.00 in0.0 mm 0.01 in0.3 mm
08:00 PM 45.0°F7.2°C 36.8°F2.7°C 73% Calm Calm -- 29.89 in1012.2 mb 0.00 in0.0 mm 0.00 in0.0 mm 0.01 in0.3 mm
08:10 PM 44.2°F6.8°C 36.8°F2.7°C 75% Calm Calm -- 29.90 in1012.5 mb 0.00 in0.0 mm 0.00 in0.0 mm 0.01 in0.3 mm
08:20 PM 43.5°F6.4°C 36.5°F2.5°C 76% Calm Calm -- 29.89 in1012.2 mb 0.00 in0.0 mm 0.00 in0.0 mm 0.01 in0.3 mm
08:30 PM 42.8°F6.0°C 36.4°F2.4°C 78% Calm Calm -- 29.89 in1012.2 mb 0.00 in0.0 mm 0.00 in0.0 mm 0.01 in0.3 mm
08:40 PM 42.3°F5.7°C 36.2°F2.3°C 79% Calm Calm -- 29.89 in1012.2 mb 0.00 in0.0 mm 0.00 in0.0 mm 0.01 in0.3 mm
08:50 PM 41.5°F5.3°C 36.2°F2.3°C 81% Calm Calm -- 29.89 in1012.2 mb 0.00 in0.0 mm 0.00 in0.0 mm 0.01 in0.3 mm
09:00 PM 41.0°F5.0°C 35.9°F2.2°C 82% Calm Calm -- 29.89 in1012.2 mb 0.00 in0.0 mm 0.00 in0.0 mm 0.01 in0.3 mm
09:10 PM 40.5°F4.7°C 36.0°F2.2°C 84% Calm Calm -- 29.89 in1012.2 mb 0.00 in0.0 mm 0.00 in0.0 mm 0.01 in0.3 mm
09:20 PM 40.1°F4.5°C 36.0°F2.2°C 85% Calm Calm -- 29.88 in1011.9 mb 0.00 in0.0 mm 0.00 in0.0 mm 0.01 in0.3 mm
09:30 PM 39.4°F4.1°C 35.5°F1.9°C 86% Calm Calm -- 29.88 in1011.9 mb 0.00 in0.0 mm 0.00 in0.0 mm 0.01 in0.3 mm
09:40 PM 38.7°F3.7°C 34.8°F1.6°C 86% Calm Calm -- 29.88 in1011.9 mb 0.00 in0.0 mm 0.00 in0.0 mm 0.01 in0.3 mm
09:50 PM 38.3°F3.5°C 35.1°F1.7°C 88% Calm Calm -- 29.89 in1012.2 mb 0.00 in0.0 mm 0.00 in0.0 mm 0.01 in0.3 mm
10:00 PM 37.6°F3.1°C 34.4°F1.3°C 88% Calm Calm -- 29.88 in1011.9 mb 0.00 in0.0 mm 0.00 in0.0 mm 0.01 in0.3 mm
10:10 PM 37.4°F3.0°C 34.5°F1.4°C 89% Calm Calm -- 29.88 in1011.9 mb 0.00 in0.0 mm 0.00 in0.0 mm 0.01 in0.3 mm
10:20 PM 36.9°F2.7°C 34.2°F1.2°C 90% Calm Calm -- 29.88 in1011.9 mb 0.00 in0.0 mm 0.00 in0.0 mm 0.01 in0.3 mm
10:30 PM 36.5°F2.5°C 33.9°F1.1°C 90% Calm Calm -- 29.88 in1011.9 mb 0.00 in0.0 mm 0.00 in0.0 mm 0.01 in0.3 mm
10:40 PM 36.3°F2.4°C 34.0°F1.1°C 91% Calm Calm -- 29.89 in1012.2 mb 0.00 in0.0 mm 0.00 in0.0 mm 0.01 in0.3 mm
10:50 PM 36.0°F2.2°C 33.3°F0.7°C 90% Calm Calm -- 29.88 in1011.9 mb 0.00 in0.0 mm 0.00 in0.0 mm 0.01 in0.3 mm
11:00 PM 35.6°F2.0°C 33.2°F0.7°C 91% Calm Calm -- 29.88 in1011.9 mb 0.00 in0.0 mm 0.00 in0.0 mm 0.01 in0.3 mm
11:10 PM 35.4°F1.9°C 33.3°F0.7°C 92% Calm Calm -- 29.88 in1011.9 mb 0.00 in0.0 mm 0.00 in0.0 mm 0.01 in0.3 mm
11:20 PM 35.2°F1.8°C 33.2°F0.7°C 92% Calm Calm -- 29.88 in1011.9 mb 0.00 in0.0 mm 0.00 in0.0 mm 0.01 in0.3 mm
11:30 PM 35.1°F1.7°C 33.0°F0.6°C 92% Calm Calm -- 29.88 in1011.9 mb 0.00 in0.0 mm 0.00 in0.0 mm 0.01 in0.3 mm
11:40 PM 34.9°F1.6°C 32.8°F0.4°C 92% Calm Calm -- 29.88 in1011.9 mb 0.00 in0.0 mm 0.00 in0.0 mm 0.01 in0.3 mm
11:50 PM 34.7°F1.5°C 32.6°F0.3°C 92% Calm Calm -- 29.88 in1011.9 mb 0.00 in0.0 mm 0.00 in0.0 mm 0.01 in0.3 mm